Time;durP1;ratioP1;P1;durP2;ratioP2;P2;SDS_P1;SDS_P2;PMS_P1;PMS_P2;Temp;Humidity;BMP_temperature;BMP_pressure;BME280_temperature;BME280_humidity;BME280_pressure;Samples;Min_cycle;Max_cycle;Signal;HPM_P1;HPM_P2
2021/08/03 00:01:24;;;;;;;0.08;0.08;;;;;;;;;;10497284;28;20055;-24
2021/08/03 00:06:30;;;;;;;0.10;0.10;;;;;;;;;;10490990;28;20044;-23
2021/08/03 00:11:39;;;;;;;0.00;0.00;;;;;;;;;;10493763;28;20054;-24
2021/08/03 00:16:43;;;;;;;0.00;0.00;;;;;;;;;;10494728;28;20130;-23
2021/08/03 00:21:46;;;;;;;0.15;0.10;;;;;;;;;;10492246;28;20120;-24
2021/08/03 00:26:50;;;;;;;0.10;0.08;;;;;;;;;;10490685;28;20052;-23
2021/08/03 00:31:54;;;;;;;0.00;0.00;;;;;;;;;;10493813;28;20055;-24
2021/08/03 00:36:57;;;;;;;0.20;0.08;;;;;;;;;;10495818;28;20346;-23
2021/08/03 00:42:06;;;;;;;0.10;0.10;;;;;;;;;;10468894;28;20341;-23
2021/08/03 00:47:13;;;;;;;0.17;0.10;;;;;;;;;;10490168;28;20037;-23
2021/08/03 00:52:18;;;;;;;0.10;0.10;;;;;;;;;;10481986;28;20052;-23
2021/08/03 00:57:26;;;;;;;0.00;0.00;;;;;;;;;;10476169;28;20775;-23
2021/08/03 01:02:29;;;;;;;0.00;0.00;;;;;;;;;;10494664;28;20080;-23
2021/08/03 01:07:36;;;;;;;0.15;0.00;;;;;;;;;;10458786;28;20048;-24
2021/08/03 01:12:48;;;;;;;0.00;0.00;;;;;;;;;;10463434;28;20072;-24
2021/08/03 01:17:58;;;;;;;0.00;0.00;;;;;;;;;;10470084;28;20043;-23
2021/08/03 01:23:08;;;;;;;0.10;0.10;;;;;;;;;;10470123;28;20056;-23
2021/08/03 01:28:15;;;;;;;0.00;0.00;;;;;;;;;;10494608;28;20083;-24
2021/08/03 01:33:21;;;;;;;0.00;0.00;;;;;;;;;;10474220;28;20044;-23
2021/08/03 01:38:27;;;;;;;0.10;0.00;;;;;;;;;;10469872;28;20071;-23
2021/08/03 01:43:33;;;;;;;0.10;0.10;;;;;;;;;;10489351;28;20713;-24
2021/08/03 01:48:38;;;;;;;0.10;0.10;;;;;;;;;;10478439;28;20044;-23
2021/08/03 01:53:45;;;;;;;0.08;0.08;;;;;;;;;;10494447;28;20055;-23
2021/08/03 01:58:50;;;;;;;0.00;0.00;;;;;;;;;;10494160;28;20048;-24
2021/08/03 02:04:03;;;;;;;0.10;0.10;;;;;;;;;;10476929;28;20051;-23
2021/08/03 02:09:09;;;;;;;0.00;0.00;;;;;;;;;;10498408;28;20791;-24
2021/08/03 02:14:14;;;;;;;0.20;0.10;;;;;;;;;;10494420;28;20063;-23
2021/08/03 02:19:24;;;;;;;0.10;0.10;;;;;;;;;;10480291;28;20140;-24
2021/08/03 02:24:45;;;;;;;0.10;0.10;;;;;;;;;;10491147;28;20053;-23
2021/08/03 02:29:56;;;;;;;0.00;0.00;;;;;;;;;;10492619;28;20062;-23
2021/08/03 02:35:05;;;;;;;0.00;0.00;;;;;;;;;;10475723;28;20098;-25
2021/08/03 02:40:11;;;;;;;0.00;0.00;;;;;;;;;;10481805;28;20065;-23
2021/08/03 02:45:32;;;;;;;0.00;0.00;;;;;;;;;;10476441;28;20568;-23
2021/08/03 02:50:36;;;;;;;0.43;0.00;;;;;;;;;;10498512;28;20048;-23
2021/08/03 02:55:42;;;;;;;0.10;0.10;;;;;;;;;;10497339;28;20565;-23
2021/08/03 03:00:47;;;;;;;0.00;0.00;;;;;;;;;;10483640;28;20055;-23
2021/08/03 03:05:52;;;;;;;0.10;0.10;;;;;;;;;;10458379;28;20055;-24
2021/08/03 03:10:57;;;;;;;0.10;0.10;;;;;;;;;;10496212;28;20396;-24
2021/08/03 03:16:02;;;;;;;0.00;0.00;;;;;;;;;;10478403;28;20512;-24
2021/08/03 03:21:06;;;;;;;0.10;0.10;;;;;;;;;;10478595;28;20048;-23
2021/08/03 03:26:09;;;;;;;0.10;0.10;;;;;;;;;;10497658;28;20048;-23
2021/08/03 03:31:14;;;;;;;0.10;0.10;;;;;;;;;;10486870;28;20048;-23
2021/08/03 03:36:18;;;;;;;0.22;0.10;;;;;;;;;;10476984;28;20518;-23
2021/08/03 03:41:23;;;;;;;0.00;0.00;;;;;;;;;;10474554;28;20071;-23
2021/08/03 03:46:29;;;;;;;0.20;0.10;;;;;;;;;;10496869;28;20040;-23
2021/08/03 03:51:35;;;;;;;0.00;0.00;;;;;;;;;;10460864;28;20136;-24
2021/08/03 03:56:40;;;;;;;0.10;0.10;;;;;;;;;;10458484;28;20576;-23
2021/08/03 04:01:44;;;;;;;0.05;0.05;;;;;;;;;;10487054;28;20054;-23
2021/08/03 04:06:47;;;;;;;0.10;0.10;;;;;;;;;;10473849;28;20056;-23
2021/08/03 04:11:51;;;;;;;0.00;0.00;;;;;;;;;;10487320;28;20517;-23
2021/08/03 04:16:57;;;;;;;0.10;0.10;;;;;;;;;;10495404;28;20477;-23
2021/08/03 04:22:03;;;;;;;0.00;0.00;;;;;;;;;;10490870;28;20489;-24
2021/08/03 04:27:07;;;;;;;0.03;0.03;;;;;;;;;;10493359;28;20049;-23
2021/08/03 04:32:11;;;;;;;0.20;0.05;;;;;;;;;;10489476;28;20051;-24
2021/08/03 04:37:14;;;;;;;0.00;0.00;;;;;;;;;;10487625;28;20896;-23
2021/08/03 04:42:16;;;;;;;0.10;0.10;;;;;;;;;;10489300;28;20052;-24
2021/08/03 04:47:20;;;;;;;0.10;0.10;;;;;;;;;;10470968;28;20044;-23
2021/08/03 04:52:23;;;;;;;0.13;0.10;;;;;;;;;;10486584;28;20132;-23
2021/08/03 04:57:26;;;;;;;0.10;0.10;;;;;;;;;;10483608;28;20059;-23
2021/08/03 05:02:30;;;;;;;0.00;0.00;;;;;;;;;;10473953;28;20123;-23
2021/08/03 05:07:33;;;;;;;0.00;0.00;;;;;;;;;;10494131;28;20109;-22
2021/08/03 05:12:36;;;;;;;0.10;0.10;;;;;;;;;;10490758;28;20076;-22
2021/08/03 05:17:40;;;;;;;0.00;0.00;;;;;;;;;;10483786;28;20117;-21
2021/08/03 05:22:43;;;;;;;0.00;0.00;;;;;;;;;;10497686;28;20165;-22
2021/08/03 05:27:46;;;;;;;0.10;0.10;;;;;;;;;;10498602;28;20040;-21
2021/08/03 05:32:50;;;;;;;0.00;0.00;;;;;;;;;;10495429;28;20515;-22
2021/08/03 05:37:53;;;;;;;0.25;0.10;;;;;;;;;;10497295;28;20131;-22
2021/08/03 05:42:56;;;;;;;0.00;0.00;;;;;;;;;;10488414;28;20409;-22
2021/08/03 05:48:00;;;;;;;0.00;0.00;;;;;;;;;;10490090;28;20041;-22
2021/08/03 05:53:03;;;;;;;0.20;0.10;;;;;;;;;;10476700;28;20432;-21
2021/08/03 05:58:05;;;;;;;0.10;0.10;;;;;;;;;;10475097;28;20048;-22
2021/08/03 06:03:10;;;;;;;0.00;0.00;;;;;;;;;;10495771;28;20048;-22
2021/08/03 06:08:14;;;;;;;0.10;0.10;;;;;;;;;;10494468;28;20126;-22
2021/08/03 06:13:17;;;;;;;0.10;0.10;;;;;;;;;;10492317;28;20345;-22
2021/08/03 06:18:23;;;;;;;0.00;0.00;;;;;;;;;;10498568;28;20499;-21
2021/08/03 06:23:26;;;;;;;0.10;0.10;;;;;;;;;;10492376;28;20059;-22
2021/08/03 06:28:31;;;;;;;0.00;0.00;;;;;;;;;;10495286;28;20047;-23
2021/08/03 06:33:35;;;;;;;0.00;0.00;;;;;;;;;;10488300;28;20095;-22
2021/08/03 06:38:37;;;;;;;0.10;0.10;;;;;;;;;;10496835;28;20040;-22
2021/08/03 06:43:45;;;;;;;0.25;0.15;;;;;;;;;;10494170;28;20048;-22
2021/08/03 06:48:52;;;;;;;0.10;0.10;;;;;;;;;;10497830;28;20131;-22
2021/08/03 06:53:57;;;;;;;0.00;0.00;;;;;;;;;;10486273;28;20054;-22
2021/08/03 06:59:03;;;;;;;0.13;0.10;;;;;;;;;;10474754;28;20501;-22
2021/08/03 07:04:11;;;;;;;0.10;0.10;;;;;;;;;;10491882;28;20512;-22
2021/08/03 07:09:15;;;;;;;0.10;0.10;;;;;;;;;;10492285;28;20052;-22
2021/08/03 07:14:18;;;;;;;0.45;0.10;;;;;;;;;;10490076;28;20477;-22
2021/08/03 07:19:23;;;;;;;0.00;0.00;;;;;;;;;;10491982;28;20048;-22
2021/08/03 07:24:26;;;;;;;0.10;0.10;;;;;;;;;;10475110;28;20519;-22
2021/08/03 07:29:29;;;;;;;0.10;0.10;;;;;;;;;;10490902;28;20402;-23
2021/08/03 07:34:33;;;;;;;0.00;0.00;;;;;;;;;;10485791;28;20040;-21
2021/08/03 07:39:37;;;;;;;0.10;0.10;;;;;;;;;;10487107;28;20050;-23
2021/08/03 07:44:40;;;;;;;0.05;0.03;;;;;;;;;;10489576;28;20063;-22
2021/08/03 07:49:46;;;;;;;0.00;0.00;;;;;;;;;;10491398;28;20056;-22
2021/08/03 07:54:48;;;;;;;0.20;0.10;;;;;;;;;;10493256;28;20048;-22
2021/08/03 07:59:52;;;;;;;0.00;0.00;;;;;;;;;;10488825;28;20122;-22
2021/08/03 08:04:56;;;;;;;0.10;0.10;;;;;;;;;;10485425;28;20041;-22
2021/08/03 08:09:58;;;;;;;0.00;0.00;;;;;;;;;;10491116;28;20066;-22
2021/08/03 08:15:01;;;;;;;0.00;0.00;;;;;;;;;;10483048;28;20044;-22
2021/08/03 08:20:12;;;;;;;0.00;0.00;;;;;;;;;;10490917;28;20497;-22
2021/08/03 08:25:15;;;;;;;0.00;0.00;;;;;;;;;;10491727;28;20064;-22
2021/08/03 08:30:17;;;;;;;0.10;0.00;;;;;;;;;;10485472;28;20465;-22
2021/08/03 08:35:22;;;;;;;0.00;0.00;;;;;;;;;;10472651;28;20063;-23
2021/08/03 08:40:24;;;;;;;0.00;0.00;;;;;;;;;;10489756;28;20039;-22
2021/08/03 08:45:27;;;;;;;0.10;0.03;;;;;;;;;;10488157;28;20844;-22
2021/08/03 08:50:31;;;;;;;0.00;0.00;;;;;;;;;;10483922;28;20044;-22
2021/08/03 08:55:35;;;;;;;0.00;0.00;;;;;;;;;;10471694;28;20054;-22
2021/08/03 09:00:38;;;;;;;0.03;0.03;;;;;;;;;;10490907;28;20094;-23
2021/08/03 09:05:42;;;;;;;0.00;0.00;;;;;;;;;;10491932;28;20044;-22
2021/08/03 09:10:46;;;;;;;0.00;0.00;;;;;;;;;;10475419;28;20060;-22
2021/08/03 09:15:56;;;;;;;0.00;0.00;;;;;;;;;;10486058;28;20557;-22
2021/08/03 09:21:00;;;;;;;0.00;0.00;;;;;;;;;;10482397;28;20628;-22
2021/08/03 09:26:03;;;;;;;0.00;0.00;;;;;;;;;;10490804;28;20520;-22
2021/08/03 09:31:06;;;;;;;0.00;0.00;;;;;;;;;;10488750;28;20047;-22
2021/08/03 09:36:10;;;;;;;0.08;0.03;;;;;;;;;;10489908;28;20553;-22
2021/08/03 09:41:12;;;;;;;0.00;0.00;;;;;;;;;;10492508;28;20047;-22
2021/08/03 09:46:20;;;;;;;0.10;0.00;;;;;;;;;;10491852;28;20048;-22
2021/08/03 09:51:25;;;;;;;0.00;0.00;;;;;;;;;;10491550;28;20460;-22
2021/08/03 09:56:35;;;;;;;0.00;0.00;;;;;;;;;;10484549;28;20039;-22
2021/08/03 10:01:39;;;;;;;0.00;0.00;;;;;;;;;;10487490;28;20051;-22
2021/08/03 10:06:44;;;;;;;0.00;0.00;;;;;;;;;;10494356;28;20047;-22
2021/08/03 10:11:47;;;;;;;0.00;0.00;;;;;;;;;;10492939;28;20412;-23
2021/08/03 10:17:00;;;;;;;0.00;0.00;;;;;;;;;;10498913;28;20146;-23
2021/08/03 10:22:06;;;;;;;0.00;0.00;;;;;;;;;;10492645;28;20056;-23
2021/08/03 10:27:10;;;;;;;0.10;0.00;;;;;;;;;;10493804;28;20053;-23
2021/08/03 10:32:27;;;;;;;0.20;0.00;;;;;;;;;;10486023;28;20040;-23
2021/08/03 10:37:49;;;;;;;0.00;0.00;;;;;;;;;;10483658;28;20052;-22
2021/08/03 10:43:06;;;;;;;0.00;0.00;;;;;;;;;;10480821;28;20047;-23
2021/08/03 10:48:10;;;;;;;0.00;0.00;;;;;;;;;;10475415;28;20505;-22
2021/08/03 10:53:13;;;;;;;0.00;0.00;;;;;;;;;;10478587;28;20131;-22
2021/08/03 10:58:20;;;;;;;0.00;0.00;;;;;;;;;;10477934;28;20048;-23
2021/08/03 11:03:44;;;;;;;0.00;0.00;;;;;;;;;;10491594;28;20056;-22
2021/08/03 11:08:54;;;;;;;0.00;0.00;;;;;;;;;;10482279;28;20043;-23
2021/08/03 11:13:57;;;;;;;0.00;0.00;;;;;;;;;;10482336;28;20050;-23
2021/08/03 11:19:03;;;;;;;0.00;0.00;;;;;;;;;;10491304;28;20041;-22
2021/08/03 11:24:14;;;;;;;0.00;0.00;;;;;;;;;;10491822;28;20058;-22
2021/08/03 11:29:17;;;;;;;0.00;0.00;;;;;;;;;;10494516;28;20050;-23
2021/08/03 11:34:25;;;;;;;0.00;0.00;;;;;;;;;;10492380;28;20063;-22
2021/08/03 11:39:30;;;;;;;0.00;0.00;;;;;;;;;;10492607;28;20041;-23
2021/08/03 11:44:33;;;;;;;0.00;0.00;;;;;;;;;;10495302;28;20060;-22
2021/08/03 11:49:40;;;;;;;0.10;0.00;;;;;;;;;;10495588;28;20055;-22
2021/08/03 11:54:43;;;;;;;0.00;0.00;;;;;;;;;;10486278;28;20555;-22
2021/08/03 11:59:46;;;;;;;0.00;0.00;;;;;;;;;;10489383;28;20042;-23
2021/08/03 12:05:02;;;;;;;0.00;0.00;;;;;;;;;;10494298;28;20051;-23
2021/08/03 12:10:06;;;;;;;0.00;0.00;;;;;;;;;;10492031;28;20051;-22
2021/08/03 12:15:10;;;;;;;0.00;0.00;;;;;;;;;;10486221;28;20414;-23
2021/08/03 12:20:25;;;;;;;0.00;0.00;;;;;;;;;;10486856;28;20036;-22
2021/08/03 12:25:30;;;;;;;0.00;0.00;;;;;;;;;;10490576;28;20413;-23
2021/08/03 12:30:34;;;;;;;0.00;0.00;;;;;;;;;;10486838;28;20036;-23
2021/08/03 12:35:41;;;;;;;0.00;0.00;;;;;;;;;;10497067;28;20048;-22
2021/08/03 12:40:44;;;;;;;0.00;0.00;;;;;;;;;;10484082;28;20143;-23
2021/08/03 12:45:56;;;;;;;0.00;0.00;;;;;;;;;;10476470;28;20492;-22
2021/08/03 12:51:02;;;;;;;0.00;0.00;;;;;;;;;;10476114;28;20048;-21
2021/08/03 12:56:27;;;;;;;0.00;0.00;;;;;;;;;;10476139;28;20052;-21
2021/08/03 13:01:30;;;;;;;0.00;0.00;;;;;;;;;;10482646;28;20086;-21
2021/08/03 13:06:51;;;;;;;0.00;0.00;;;;;;;;;;10480327;28;20048;-20
2021/08/03 13:11:53;;;;;;;0.00;0.00;;;;;;;;;;10482598;28;20385;-21
2021/08/03 13:16:57;;;;;;;0.00;0.00;;;;;;;;;;10473990;28;20424;-21
2021/08/03 13:22:01;;;;;;;0.00;0.00;;;;;;;;;;10476683;28;20375;-21
2021/08/03 13:27:04;;;;;;;0.25;0.08;;;;;;;;;;10482564;28;20052;-21
2021/08/03 13:32:07;;;;;;;0.00;0.00;;;;;;;;;;10477687;28;20082;-21
2021/08/03 13:37:11;;;;;;;0.10;0.10;;;;;;;;;;10481838;28;20425;-21
2021/08/03 13:42:13;;;;;;;0.00;0.00;;;;;;;;;;10478979;28;20048;-21
2021/08/03 13:47:17;;;;;;;0.00;0.00;;;;;;;;;;10484020;28;20052;-20
2021/08/03 13:52:21;;;;;;;0.00;0.00;;;;;;;;;;10477881;28;20273;-20
2021/08/03 13:57:23;;;;;;;0.00;0.00;;;;;;;;;;10488755;28;20378;-21
2021/08/03 14:02:26;;;;;;;0.00;0.00;;;;;;;;;;10479521;28;20048;-22
2021/08/03 14:07:30;;;;;;;0.00;0.00;;;;;;;;;;10481530;28;20049;-23
2021/08/03 14:12:34;;;;;;;0.00;0.00;;;;;;;;;;10482362;28;20522;-22
2021/08/03 14:17:36;;;;;;;0.00;0.00;;;;;;;;;;10489938;28;20927;-22
2021/08/03 14:22:42;;;;;;;0.00;0.00;;;;;;;;;;10481861;28;20118;-23
2021/08/03 14:27:45;;;;;;;0.00;0.00;;;;;;;;;;10485589;28;20044;-23
2021/08/03 14:32:48;;;;;;;0.00;0.00;;;;;;;;;;10487420;28;20044;-22
2021/08/03 14:37:52;;;;;;;0.08;0.00;;;;;;;;;;10487140;28;20036;-23
2021/08/03 14:42:55;;;;;;;0.00;0.00;;;;;;;;;;10476127;28;20040;-23
2021/08/03 14:47:57;;;;;;;0.00;0.00;;;;;;;;;;10493645;28;20040;-22
2021/08/03 14:53:02;;;;;;;0.10;0.10;;;;;;;;;;10495722;28;20465;-22
2021/08/03 14:58:05;;;;;;;0.00;0.00;;;;;;;;;;10494385;28;20040;-22
2021/08/03 15:03:08;;;;;;;0.00;0.00;;;;;;;;;;10493603;28;20040;-22
2021/08/03 15:08:12;;;;;;;0.00;0.00;;;;;;;;;;10500444;28;20142;-22
2021/08/03 15:13:15;;;;;;;0.00;0.00;;;;;;;;;;10491808;28;20064;-22
2021/08/03 15:18:17;;;;;;;0.00;0.00;;;;;;;;;;10496968;28;20045;-22
2021/08/03 15:23:22;;;;;;;0.00;0.00;;;;;;;;;;10503282;28;20052;-22
2021/08/03 15:28:25;;;;;;;0.00;0.00;;;;;;;;;;10493611;28;20770;-22
2021/08/03 15:33:29;;;;;;;0.00;0.00;;;;;;;;;;10496439;28;20743;-22
2021/08/03 15:38:33;;;;;;;0.00;0.00;;;;;;;;;;10494666;28;20064;-22
2021/08/03 15:43:36;;;;;;;0.00;0.00;;;;;;;;;;10492308;28;20806;-22
2021/08/03 15:48:40;;;;;;;0.00;0.00;;;;;;;;;;10494571;28;20044;-22
2021/08/03 15:53:44;;;;;;;0.00;0.00;;;;;;;;;;10495428;28;20055;-22
2021/08/03 15:58:46;;;;;;;0.08;0.00;;;;;;;;;;10498684;28;20044;-22
2021/08/03 16:03:50;;;;;;;0.00;0.00;;;;;;;;;;10491373;28;20493;-22
2021/08/03 16:08:54;;;;;;;0.00;0.00;;;;;;;;;;10495816;28;20494;-22
2021/08/03 16:13:56;;;;;;;0.00;0.00;;;;;;;;;;10492639;28;20052;-22
2021/08/03 16:19:03;;;;;;;0.00;0.00;;;;;;;;;;10499344;28;20412;-22
2021/08/03 16:24:07;;;;;;;0.00;0.00;;;;;;;;;;10503676;28;20431;-22
2021/08/03 16:29:10;;;;;;;0.00;0.00;;;;;;;;;;10518530;28;20408;-23
2021/08/03 16:34:13;;;;;;;0.00;0.00;;;;;;;;;;10512000;28;20063;-22
2021/08/03 16:39:18;;;;;;;0.00;0.00;;;;;;;;;;10499220;28;20036;-23
2021/08/03 16:44:20;;;;;;;0.00;0.00;;;;;;;;;;10474122;28;20052;-23
2021/08/03 16:49:23;;;;;;;0.00;0.00;;;;;;;;;;10474836;28;20056;-23
2021/08/03 16:54:43;;;;;;;0.00;0.00;;;;;;;;;;10465739;28;20040;-23
2021/08/03 16:59:46;;;;;;;0.00;0.00;;;;;;;;;;10488264;28;20555;-23
2021/08/03 17:04:56;;;;;;;0.00;0.00;;;;;;;;;;10466512;28;20052;-23
2021/08/03 17:10:03;;;;;;;0.00;0.00;;;;;;;;;;10511938;28;20059;-24
2021/08/03 17:15:06;;;;;;;0.00;0.00;;;;;;;;;;10508656;28;20134;-24
2021/08/03 17:20:10;;;;;;;0.00;0.00;;;;;;;;;;10509974;28;20071;-23
2021/08/03 17:25:16;;;;;;;0.00;0.00;;;;;;;;;;10494529;28;20040;-23
2021/08/03 17:30:19;;;;;;;0.00;0.00;;;;;;;;;;10501636;28;20048;-23
2021/08/03 17:35:22;;;;;;;0.00;0.00;;;;;;;;;;10505448;28;20396;-23
2021/08/03 17:40:26;;;;;;;0.00;0.00;;;;;;;;;;10499680;28;20096;-23
2021/08/03 17:45:29;;;;;;;0.00;0.00;;;;;;;;;;10500884;28;20048;-23
2021/08/03 17:50:33;;;;;;;0.00;0.00;;;;;;;;;;10499170;28;20502;-23
2021/08/03 17:55:40;;;;;;;0.00;0.00;;;;;;;;;;10495972;28;20048;-23
2021/08/03 18:00:43;;;;;;;0.00;0.00;;;;;;;;;;10482786;28;20052;-23
2021/08/03 18:05:47;;;;;;;0.10;0.00;;;;;;;;;;10496912;28;20047;-23
2021/08/03 18:10:53;;;;;;;0.00;0.00;;;;;;;;;;10493761;28;20377;-23
2021/08/03 18:15:56;;;;;;;0.00;0.00;;;;;;;;;;10498161;28;20054;-23
2021/08/03 18:21:00;;;;;;;0.00;0.00;;;;;;;;;;10497844;28;20489;-23
2021/08/03 18:26:05;;;;;;;0.00;0.00;;;;;;;;;;10496883;28;20492;-22
2021/08/03 18:31:13;;;;;;;0.00;0.00;;;;;;;;;;10469623;28;20118;-23
2021/08/03 18:36:16;;;;;;;0.00;0.00;;;;;;;;;;10477783;28;20041;-23
2021/08/03 18:41:20;;;;;;;0.00;0.00;;;;;;;;;;10487069;28;20036;-22
2021/08/03 18:46:25;;;;;;;0.00;0.00;;;;;;;;;;10497148;28;20036;-23
2021/08/03 18:51:28;;;;;;;0.00;0.00;;;;;;;;;;10489071;28;20405;-23
2021/08/03 18:56:35;;;;;;;0.00;0.00;;;;;;;;;;10493098;28;20062;-23
2021/08/03 19:01:38;;;;;;;0.05;0.00;;;;;;;;;;10489676;28;20044;-23
2021/08/03 19:07:02;;;;;;;0.08;0.00;;;;;;;;;;10494135;28;20044;-23
2021/08/03 19:12:07;;;;;;;0.00;0.00;;;;;;;;;;10490445;28;20052;-23
2021/08/03 19:17:10;;;;;;;0.00;0.00;;;;;;;;;;10495085;28;20054;-23
2021/08/03 19:22:14;;;;;;;0.20;0.00;;;;;;;;;;10494861;28;20028;-23
2021/08/03 19:27:19;;;;;;;0.00;0.00;;;;;;;;;;10455688;28;20259;-23
2021/08/03 19:32:22;;;;;;;0.00;0.00;;;;;;;;;;10439654;28;20139;-23
2021/08/03 19:37:25;;;;;;;0.17;0.10;;;;;;;;;;10441623;28;20047;-22
2021/08/03 19:42:29;;;;;;;0.00;0.00;;;;;;;;;;10454397;28;20041;-23
2021/08/03 19:47:35;;;;;;;0.10;0.10;;;;;;;;;;10450868;28;20079;-23
2021/08/03 19:52:39;;;;;;;0.00;0.00;;;;;;;;;;10449678;28;20041;-22
2021/08/03 19:57:44;;;;;;;0.00;0.00;;;;;;;;;;10450477;28;20052;-22
2021/08/03 20:02:47;;;;;;;0.10;0.00;;;;;;;;;;10447838;28;20048;-22
2021/08/03 20:07:52;;;;;;;0.00;0.00;;;;;;;;;;10453973;28;20060;-23
2021/08/03 20:12:56;;;;;;;0.03;0.03;;;;;;;;;;10447553;28;20045;-22
2021/08/03 20:17:59;;;;;;;0.00;0.00;;;;;;;;;;10448477;28;20045;-23
2021/08/03 20:23:01;;;;;;;0.00;0.00;;;;;;;;;;10447530;28;20512;-23
2021/08/03 20:28:06;;;;;;;0.00;0.00;;;;;;;;;;10475361;28;20044;-23
2021/08/03 20:33:09;;;;;;;0.00;0.00;;;;;;;;;;10471505;28;20044;-23
2021/08/03 20:38:13;;;;;;;0.10;0.00;;;;;;;;;;10474824;28;20044;-22
2021/08/03 20:43:22;;;;;;;0.10;0.10;;;;;;;;;;10473075;28;20405;-22
2021/08/03 20:48:25;;;;;;;0.00;0.00;;;;;;;;;;10479989;28;20044;-23
2021/08/03 20:53:30;;;;;;;0.10;0.10;;;;;;;;;;10471590;28;20063;-22
2021/08/03 20:58:34;;;;;;;0.38;0.10;;;;;;;;;;10474693;28;20048;-22
2021/08/03 21:03:39;;;;;;;0.00;0.00;;;;;;;;;;10480046;28;20049;-22
2021/08/03 21:08:45;;;;;;;0.00;0.00;;;;;;;;;;10474448;28;20043;-23
2021/08/03 21:13:51;;;;;;;0.00;0.00;;;;;;;;;;10478208;28;20033;-23
2021/08/03 21:19:12;;;;;;;0.05;0.03;;;;;;;;;;10477512;28;20136;-22
2021/08/03 21:24:33;;;;;;;0.10;0.10;;;;;;;;;;10482766;28;20049;-23
2021/08/03 21:29:56;;;;;;;0.10;0.10;;;;;;;;;;10494525;28;20139;-23
2021/08/03 21:35:17;;;;;;;0.00;0.00;;;;;;;;;;10492559;28;20044;-23
2021/08/03 21:40:38;;;;;;;0.30;0.20;;;;;;;;;;10482959;28;20505;-22
2021/08/03 21:46:01;;;;;;;0.10;0.10;;;;;;;;;;10490586;28;20056;-23
2021/08/03 21:51:22;;;;;;;0.10;0.10;;;;;;;;;;10492143;28;20132;-23
2021/08/03 21:56:24;;;;;;;0.05;0.05;;;;;;;;;;10491253;28;20084;-23
2021/08/03 22:01:34;;;;;;;0.17;0.13;;;;;;;;;;10489837;28;20037;-23
2021/08/03 22:06:37;;;;;;;0.03;0.03;;;;;;;;;;10501823;28;20048;-23
2021/08/03 22:11:40;;;;;;;0.10;0.10;;;;;;;;;;10490047;28;20053;-23
2021/08/03 22:16:44;;;;;;;0.10;0.10;;;;;;;;;;10485892;28;20044;-22
2021/08/03 22:21:47;;;;;;;0.20;0.10;;;;;;;;;;10483758;28;20051;-23
2021/08/03 22:26:49;;;;;;;0.00;0.00;;;;;;;;;;10495583;28;20771;-23
2021/08/03 22:31:54;;;;;;;0.22;0.10;;;;;;;;;;10491510;28;20040;-23
2021/08/03 22:36:57;;;;;;;0.10;0.10;;;;;;;;;;10500264;28;20044;-23
2021/08/03 22:42:00;;;;;;;0.10;0.10;;;;;;;;;;10496800;28;20052;-23
2021/08/03 22:47:04;;;;;;;0.75;0.13;;;;;;;;;;10499907;28;20401;-22
2021/08/03 22:52:07;;;;;;;0.10;0.10;;;;;;;;;;10494468;28;20041;-23
2021/08/03 22:57:09;;;;;;;0.40;0.10;;;;;;;;;;10501411;28;20040;-23
2021/08/03 23:02:13;;;;;;;0.00;0.00;;;;;;;;;;10493758;28;20040;-22
2021/08/03 23:07:16;;;;;;;0.28;0.10;;;;;;;;;;10495299;28;20806;-23
2021/08/03 23:12:19;;;;;;;0.10;0.10;;;;;;;;;;10497032;28;20512;-22
2021/08/03 23:17:23;;;;;;;0.08;0.08;;;;;;;;;;10498403;28;20041;-23
2021/08/03 23:22:25;;;;;;;0.10;0.10;;;;;;;;;;10500528;28;20044;-22
2021/08/03 23:27:29;;;;;;;0.00;0.00;;;;;;;;;;10499170;28;20056;-23
2021/08/03 23:32:34;;;;;;;0.10;0.05;;;;;;;;;;10493833;28;20040;-23
2021/08/03 23:37:36;;;;;;;0.00;0.00;;;;;;;;;;10494848;28;20490;-22
2021/08/03 23:42:39;;;;;;;0.10;0.10;;;;;;;;;;10496488;28;20425;-22
2021/08/03 23:47:43;;;;;;;0.75;0.10;;;;;;;;;;10493317;28;20133;-22
2021/08/03 23:52:47;;;;;;;0.10;0.10;;;;;;;;;;10492283;28;20044;-23
2021/08/03 23:57:55;;;;;;;0.10;0.10;;;;;;;;;;10492970;28;20053;-23
